Nathaniel B. Palmer — WBP3210 — position and weather

sailwx.info

Track history (hours):
 
Tides and Currents Weather Stations Pressure Air Temp Water Temp Dewpoint Dewpoint Depression Visibility Wind Speed Wind Dir Waves Ship Positions

Oceanographic research ship Nathaniel B. Palmer (USA)

Contact: Ethan Norris, ethan.norris.contractor@usap.gov

Detailed information on ship capabilities available from University of Delaware's Ocean Information Center and ARCUS's ALIAS (Arctic Logistics Information and Support) project.

Owner: OFFSHORE SERVICE VESSELS, GALLIANO, LA. More information available from US FCC via Universal Licensing System and Coast Guard Vessel Documentation Center.

Last reported at 2016-Dec-03 19:00 UTC. Time now 2016-Dec-03 19:41 UTC.
Position S 54°00' W 088°54'.

Type: Other ship. MMSI: 366610000.

Wind from 280 at 18 knots

Barometer 1007.2 mb
Air temperature 6.9 ° C
Water temperature 7.1 ° C

Date/timePositionNaut miles runAvg speedWind from/ knotsBaromVisibWave heightAir tempDewpointWater temp
2016-Dec-03 19:00S 54°00' W 088°54'4 3.5 280 / 181007.2 6.9 7.1
2016-Dec-03 18:00S 54°00' W 088°48'0 0.0 270 / 191007.0 6.8 7.0
2016-Dec-03 17:00S 54°00' W 088°48'0 0.0 270 / 191006.8 6.5 7.0
2016-Dec-03 16:00S 54°00' W 088°48'4 3.5 270 / 191006.5 6.1 7.0
2016-Dec-03 15:00S 54°00' W 088°42'0 0.0 270 / 181006.1 5.8 7.0
2016-Dec-03 14:00S 54°00' W 088°42'0 0.0 260 / 201005.7 5.8 7.0
2016-Dec-03 13:00S 54°00' W 088°42'0 0.0 260 / 171005.4 5.5 7.0
2016-Dec-03 12:00S 54°00' W 088°42'0 0.0 250 / 181005.0 5.4 7.0
2016-Dec-03 11:00S 54°00' W 088°42'0 0.0 240 / 171004.6 5.5 6.9
2016-Dec-03 10:00S 54°00' W 088°42'0 0.0 230 / 191003.7 5.5 7.0
2016-Dec-03 09:00S 54°00' W 088°42'0 0.0 230 / 161003.5 5.2 7.0
2016-Dec-03 08:00S 54°00' W 088°42'4 3.5 230 / 181003.0 4.6 7.0
2016-Dec-03 07:00S 54°00' W 088°36'4 3.5 230 / 191002.5 4.8 7.0
2016-Dec-03 06:00S 54°00' W 088°42'4 3.5 220 / 161002.2 4.4 7.0
2016-Dec-03 05:00S 54°00' W 088°48'4 3.5 220 / 221001.6 5.4 7.1
2016-Dec-03 04:00S 54°00' W 088°54'0 0.0 220 / 191001.1 5.2 7.1
2016-Dec-03 03:00S 54°00' W 088°54'0 0.0 220 / 211000.1 4.9 7.1
2016-Dec-03 02:00S 54°00' W 088°54'0 0.0 240 / 22998.7 5.2 7.1
2016-Dec-03 01:00S 54°00' W 088°54'0 0.0 240 / 21998.3 5.1 7.1
2016-Dec-03 00:00S 54°00' W 088°54'0 0.0 230 / 23997.5 5.9 7.1
2016-Dec-02 23:00S 54°00' W 088°54'0 0.0 240 / 19997.0 5.7 7.2
2016-Dec-02 22:00S 54°00' W 088°54'4 3.5 230 / 20996.3 5.7 7.1
2016-Dec-02 21:00S 54°00' W 089°00'1212.2 240 / 20995.9 5.9 7.1
2016-Dec-02 20:00S 54°06' W 089°18'7 7.0 240 / 18995.4 5.7 7.0
2016-Dec-02 19:00S 54°06' W 089°30'0 0.0 230 / 21994.5 5.4 7.0
2016-Dec-02 18:00S 54°06' W 089°30'0 0.0 230 / 22993.7 5.3 7.0
2016-Dec-02 17:00S 54°06' W 089°30'0 0.0 230 / 23992.7 5.9 7.0
2016-Dec-02 16:00S 54°06' W 089°30'4 3.5 230 / 23991.8 6.0 7.0
2016-Dec-02 15:00S 54°06' W 089°36'0 0.0 230 / 22991.2 6.1 7.0
2016-Dec-02 14:00S 54°06' W 089°36'0 0.0 230 / 20990.3 6.8 7.0
2016-Dec-02 13:00S 54°06' W 089°36'0 0.0 240 / 20989.5 6.4 7.1
2016-Dec-02 12:00S 54°06' W 089°36'0 0.0 280 / 20988.9 6.7 7.1
2016-Dec-02 11:00S 54°06' W 089°36'0 0.0 300 / 19988.6 6.9 7.1
2016-Dec-02 10:00S 54°06' W 089°36'0 0.0 310 / 20988.3 7.0 7.1
2016-Dec-02 09:00S 54°06' W 089°36'6 6.0 320 / 19988.4 7.1 7.1
2016-Dec-02 08:00S 54°00' W 089°36'0 0.0 330 / 20988.8 7.0 7.0
2016-Dec-02 07:00S 54°00' W 089°36'6 6.0 330 / 19989.2 7.2 7.0
2016-Dec-02 06:00S 53°54' W 089°36'0 0.0 330 / 19989.5 7.1 7.0
2016-Dec-02 05:00S 53°54' W 089°36'0 0.0 330 / 20989.6 7.2 7.0
2016-Dec-02 04:00S 53°54' W 089°36'4 3.5 330 / 19989.6 7.3 7.0
2016-Dec-02 03:00S 53°54' W 089°30'6 6.0 320 / 21989.4 7.2 7.0
2016-Dec-02 02:00S 54°00' W 089°30'0 0.0 340 / 22989.0 7.3 7.0
2016-Dec-02 01:00S 54°00' W 089°30'7 7.0 360 / 24989.5 7.4 7.1
2016-Dec-02 00:00S 54°06' W 089°36'0 0.0 010 / 26990.1 7.2 7.2
2016-Dec-01 23:00S 54°06' W 089°36'6 6.0 010 / 26990.8 7.2 7.2
2016-Dec-01 22:00S 54°00' W 089°36'0 0.0 010 / 23992.3 7.3 7.2
2016-Dec-01 21:00S 54°00' W 089°36'0 0.0 010 / 22993.3 7.4 7.3
2016-Dec-01 20:00S 54°00' W 089°36'6 6.0 010 / 20994.1 7.2 7.3
2016-Dec-01 19:00S 54°06' W 089°36'0 0.0 360 / 19994.8 7.3 7.2
2016-Dec-01 18:00S 54°06' W 089°36'0 0.0 350 / 18995.2 7.2 7.2
2016-Dec-01 17:00S 54°06' W 089°36'4 3.5 340 / 16995.5 6.9 7.1
2016-Dec-01 16:00S 54°06' W 089°30'0 0.0 330 / 16995.5 7.1 7.1
2016-Dec-01 15:00S 54°06' W 089°30'0 0.0 310 / 15995.4 6.9 7.0
2016-Dec-01 14:00S 54°06' W 089°30'6 6.0 300 / 15995.3 7.0 7.0
2016-Dec-01 13:00S 54°12' W 089°30'4 3.5 290 / 13995.1 7.0 7.0
2016-Dec-01 12:00S 54°12' W 089°24'0 0.0 280 / 14994.6 7.0 6.9
2016-Dec-01 11:00S 54°12' W 089°24'0 0.0 270 / 15994.1 6.8 6.9
2016-Dec-01 10:00S 54°12' W 089°24'0 0.0 290 / 14993.6 6.8 7.1
2016-Dec-01 09:00S 54°12' W 089°24'0 0.0 290 / 15993.3 6.9 7.1
2016-Dec-01 08:00S 54°12' W 089°24'0 0.0 310 / 12993.2 6.6 7.1
2016-Dec-01 07:00S 54°12' W 089°24'0 0.0 320 / 11993.1 6.4 7.0
2016-Dec-01 06:00S 54°12' W 089°24'0 0.0 320 / 7993.0 6.6 7.1
2016-Dec-01 05:00S 54°12' W 089°24'0 0.0 320 / 4992.7 6.7 7.1
2016-Dec-01 04:00S 54°12' W 089°24'0 0.0 280 / 4992.4 6.8 7.1
2016-Dec-01 03:00S 54°12' W 089°24'0 0.0 230 / 4991.7 6.9 7.2
2016-Dec-01 02:00S 54°12' W 089°24'6 6.0 200 / 3991.1 7.2 7.4
2016-Dec-01 01:00S 54°18' W 089°24'4 3.5 170 / 3990.8 7.4 7.4
2016-Dec-01 00:00S 54°18' W 089°18'6 6.0 150 / 5990.5 7.4 7.4
2016-Nov-30 23:00S 54°24' W 089°18'0 0.0 140 / 5990.6 7.4 7.3
2016-Nov-30 22:00S 54°24' W 089°18'0 0.0 110 / 6990.3 7.0 7.1
2016-Nov-30 21:00S 54°24' W 089°18'0 0.0 100 / 6990.5 6.9 6.9
2016-Nov-30 20:00S 54°24' W 089°18'3 3.5 090 / 8990.9 6.9 7.0
2016-Nov-30 19:00S 54°24' W 089°12'0 0.0 090 / 7991.3 7.0 7.1
2016-Nov-30 18:00S 54°24' W 089°12'0 0.0 060 / 6992.1 6.9 6.9
2016-Nov-30 17:00S 54°24' W 089°12'0 0.0 050 / 6992.9 6.7 6.8
2016-Nov-30 16:00S 54°24' W 089°12'7 6.9 040 / 5993.5 6.6 6.8
2016-Nov-30 15:00S 54°30' W 089°06'0 0.0 020 / 5994.4 6.6 6.7
2016-Nov-30 14:00S 54°30' W 089°06'0 0.0 995.1 6.5 6.7
2016-Nov-30 13:00S 54°30' W 089°06'3 3.5 340 / 8995.8 6.5 6.7
2016-Nov-30 12:00S 54°30' W 089°00'6 6.0 320 / 9996.3 6.5 6.7
2016-Nov-30 11:00S 54°24' W 089°00'0 0.0 310 / 10996.7 6.4 6.7
2016-Nov-30 10:00S 54°24' W 089°00'0 0.0 310 / 11996.9 6.4 6.7
2016-Nov-30 09:00S 54°24' W 089°00'3 3.5 300 / 14997.1 6.5 6.7
2016-Nov-30 08:00S 54°24' W 089°06'3 3.5 300 / 17997.2 8.2 6.7
2016-Nov-30 07:00S 54°24' W 089°12'7 7.0 300 / 19997.2 9.5 6.7
2016-Nov-30 06:00S 54°24' W 089°24'7 7.0 290 / 20997.2 9.0 6.8
2016-Nov-30 05:00S 54°24' W 089°36'3 3.5 290 / 23997.1 9.0 6.8
2016-Nov-30 04:00S 54°24' W 089°42'7 7.0 290 / 23997.2 9.0 6.8
2016-Nov-30 03:00S 54°24' W 089°54'3 3.5 290 / 24996.7 8.5 6.8
2016-Nov-30 02:00S 54°24' W 090°00'3 3.5 300 / 24996.4 8.7 6.8
2016-Nov-30 01:00S 54°24' W 090°06'3 3.5 290 / 25996.2 7.5 6.8
2016-Nov-30 00:00S 54°24' W 090°12'3 3.5 300 / 27995.7 8.3 6.8
2016-Nov-29 23:00S 54°24' W 090°18'3 3.5 290 / 22995.9 7.9 6.8
2016-Nov-29 22:00S 54°24' W 090°24'7 6.9 290 / 26994.8 7.2 6.8
2016-Nov-29 21:00S 54°30' W 090°18'6 6.0 290 / 27994.2 7.0 6.8
2016-Nov-29 20:00S 54°36' W 090°18'3 3.5 290 / 28993.4 7.2 6.8
2016-Nov-29 19:00S 54°36' W 090°12'6 6.0 280 / 29992.4 7.1 6.8
2016-Nov-29 18:00S 54°42' W 090°12'3 3.5 280 / 30991.1 7.0 6.7
2016-Nov-29 17:00S 54°42' W 090°06'6 6.0 280 / 29990.1 6.9 6.7
2016-Nov-29 16:00S 54°48' W 090°06'7 6.9 290 / 33988.7 7.2 6.7
2016-Nov-29 15:00S 54°54' W 090°00'16 2.3 290 / 33987.7 7.3 6.7
2016-Nov-29 08:00S 55°06' W 089°42'3 3.4 310 / 42984.9 7.4 6.6
2016-Nov-29 07:00S 55°06' W 089°36'3 3.4 300 / 42984.8 7.4 6.6
2016-Nov-29 06:00S 55°06' W 089°30'0 0.0 300 / 46984.1 7.6 6.5
2016-Nov-29 05:00S 55°06' W 089°30'1212.5 300 / 43984.2 7.6 6.5
2016-Nov-29 04:00S 54°54' W 089°36'6 6.0 310 / 43984.1 7.6 6.7
2016-Nov-29 03:00S 54°48' W 089°36'1212.0 310 / 40984.0 7.2 6.8
2016-Nov-29 02:00S 54°36' W 089°36'0 0.0 300 / 40982.9 7.3 6.8
2016-Nov-29 01:00S 54°36' W 089°36'7 6.9 320 / 39982.1 8.3 6.8
2016-Nov-29 00:00S 54°30' W 089°30'7 6.9 350 / 37983.6 8.5 6.8
2016-Nov-28 23:00S 54°24' W 089°24'7 7.0 350 / 34986.2 8.4 6.8
2016-Nov-28 22:00S 54°24' W 089°12'0 0.0 350 / 35988.8 8.6 6.8
2016-Nov-28 21:00S 54°24' W 089°12'0 0.0 350 / 33990.8 8.2 6.8
2016-Nov-28 20:00S 54°24' W 089°12'3 3.5 360 / 28992.7 7.7 6.8
2016-Nov-28 19:00S 54°24' W 089°06'7 7.0 994.5 7.3 6.8
2016-Nov-28 18:00S 54°24' W 089°18'6 6.0 010 / 20996.6 7.1 6.8
2016-Nov-28 17:00S 54°18' W 089°18'7 6.9 360 / 18998.6 7.7 6.8
2016-Nov-28 16:00S 54°12' W 089°24'9 9.2 350 / 201000.2 8.8 6.8
2016-Nov-28 15:00S 54°06' W 089°36'0 0.0 340 / 221001.5 7.5 6.8
2016-Nov-28 14:00S 54°06' W 089°36'0 0.0 340 / 211002.1 7.2 6.8
2016-Nov-28 13:00S 54°06' W 089°36'0 0.0 340 / 201002.7 7.2 6.8
2016-Nov-28 12:00S 54°06' W 089°36'6 6.0 350 / 211003.5 7.1 6.8
2016-Nov-28 11:00S 54°00' W 089°36'1312.5 1004.6 6.9 6.8
2016-Nov-28 10:00S 53°48' W 089°30'7 7.0 350 / 191005.7 6.9 6.8
2016-Nov-28 09:00S 53°42' W 089°24'1312.5 350 / 181006.8 7.0 6.8
2016-Nov-28 08:00S 53°30' W 089°18'7 7.0 350 / 171007.6 7.0 6.8
2016-Nov-28 07:00S 53°24' W 089°12'1312.5 330 / 161008.9 7.2 6.9
2016-Nov-28 06:00S 53°12' W 089°06'1312.5 320 / 161009.7 7.3 6.9
2016-Nov-28 05:00S 53°00' W 089°00'7 7.0 320 / 171010.4 7.4 7.0
2016-Nov-28 04:00S 52°54' W 088°54'1312.5 310 / 181010.8 7.6 7.0
2016-Nov-28 03:00S 52°42' W 088°48'7 7.0 300 / 191011.1 7.7 6.9
2016-Nov-28 02:00S 52°36' W 088°42'1312.5 300 / 181011.2 7.5 7.1
2016-Nov-28 01:00S 52°24' W 088°36'7 7.0 300 / 171011.4 7.6 7.2
2016-Nov-28 00:00S 52°18' W 088°30'0 0.0 300 / 191011.6 7.7 7.3
2016-Nov-27 23:00S 52°18' W 088°30'4 3.7 300 / 211011.5 7.9 7.3
2016-Nov-27 22:00S 52°18' W 088°24'0 0.0 300 / 211011.2 7.9 7.3
2016-Nov-27 21:00S 52°18' W 088°24'0 0.0 290 / 231010.9 8.2 7.3
2016-Nov-27 20:00S 52°18' W 088°24'0 0.0 290 / 251010.0 8.1 7.3
2016-Nov-27 19:00S 52°18' W 088°24'0 0.0 290 / 251009.9 8.3 7.3
2016-Nov-27 18:00S 52°18' W 088°24'0 0.0 290 / 261009.5 8.3 7.3
2016-Nov-27 17:00S 52°18' W 088°24'4 3.7 290 / 271008.9 8.4 7.3
2016-Nov-27 16:00S 52°18' W 088°30'7 7.3 290 / 281008.5 8.4 7.3
2016-Nov-27 15:00S 52°18' W 088°42'4 3.7 290 / 271008.3 8.5 7.2
2016-Nov-27 14:00S 52°18' W 088°48'0 0.0 290 / 261007.9 8.1 7.2
2016-Nov-27 13:00S 52°18' W 088°48'0 0.0 280 / 261007.5 8.0 7.2
2016-Nov-27 12:00S 52°18' W 088°48'0 0.0 280 / 271007.0 8.0 7.2
2016-Nov-27 11:00S 52°18' W 088°48'0 0.0 280 / 281006.4 8.1 7.2
2016-Nov-27 10:00S 52°18' W 088°48'0 0.0 290 / 291005.9 8.2 7.2
2016-Nov-27 09:00S 52°18' W 088°48'0 0.0 300 / 281005.3 8.1 7.2
2016-Nov-27 08:00S 52°18' W 088°48'0 0.0 300 / 291004.9 8.1 7.2
2016-Nov-27 07:00S 52°18' W 088°48'0 0.0 300 / 281004.9 8.1 7.2
2016-Nov-27 06:00S 52°18' W 088°48'7 7.0 310 / 281003.9 7.9 7.1
2016-Nov-27 05:00S 52°24' W 088°54'1212.0 310 / 291003.4 7.9 7.1
2016-Nov-27 04:00S 52°36' W 088°54'6 6.0 310 / 271003.3 7.8 7.0
2016-Nov-27 03:00S 52°42' W 088°54'6 6.0 310 / 281002.6 7.8 6.9
2016-Nov-27 02:00S 52°48' W 088°54'1312.5 300 / 261002.3 7.8 6.9
2016-Nov-27 01:00S 53°00' W 089°00'6 6.0 300 / 271001.7 7.8 7.0
2016-Nov-27 00:00S 53°06' W 089°00'6 6.0 300 / 281001.1 7.8 6.9
2016-Nov-26 23:00S 53°12' W 089°00'1212.0 300 / 301000.2 7.9 6.8
2016-Nov-26 22:00S 53°24' W 089°00'7 7.0 300 / 30999.3 7.8 6.8
2016-Nov-26 21:00S 53°30' W 089°06'6 6.0 300 / 30998.4 7.7 6.8
2016-Nov-26 20:00S 53°36' W 089°06'6 6.0 300 / 30997.6 7.7 6.8
2016-Nov-26 19:00S 53°42' W 089°06'6 6.0 300 / 29997.0 7.7 6.8
2016-Nov-26 18:00S 53°48' W 089°06'6 6.0 300 / 29996.4 7.6 6.8
2016-Nov-26 17:00S 53°54' W 089°06'1212.0 300 / 30995.9 7.6 6.7
2016-Nov-26 16:00S 54°06' W 089°06'6 6.0 300 / 31995.1 7.5 6.7
2016-Nov-26 15:00S 54°12' W 089°06'6 6.0 310 / 32994.4 7.6 6.7
2016-Nov-26 14:00S 54°18' W 089°06'6 6.0 310 / 33993.8 7.6 6.7
2016-Nov-26 13:00S 54°24' W 089°06'0 0.0 320 / 34994.2 7.6 6.8
2016-Nov-26 12:00S 54°24' W 089°06'0 0.0 330 / 34995.4 7.7 6.8
2016-Nov-26 11:00S 54°24' W 089°06'0 0.0 340 / 32996.1 7.4 6.8
2016-Nov-26 10:00S 54°24' W 089°06'0 0.0 340 / 29997.1 7.3 6.8
2016-Nov-26 09:00S 54°24' W 089°06'0 0.0 330 / 26998.2 7.5 6.8
2016-Nov-26 08:00S 54°24' W 089°06'0 0.0 330 / 29998.6 7.4 6.8
2016-Nov-26 07:00S 54°24' W 089°06'0 0.0 340 / 29999.0 7.3 6.8
2016-Nov-26 06:00S 54°24' W 089°06'0 0.0 330 / 27999.7 7.5 6.8
2016-Nov-26 05:00S 54°24' W 089°06'0 0.0 320 / 281000.0 7.5 6.8
2016-Nov-26 04:00S 54°24' W 089°06'0 0.0 320 / 291000.0 7.6 6.8
2016-Nov-26 03:00S 54°24' W 089°06'0 0.0 320 / 31999.7 7.6 6.8
2016-Nov-26 02:00S 54°24' W 089°06'0 0.0 340 / 32999.4 7.3 6.8
2016-Nov-26 01:00S 54°24' W 089°06'3 3.5 350 / 34999.2 7.6 6.8
2016-Nov-26 00:00S 54°24' W 089°12'0 0.0 360 / 341000.7 6.7 6.8
2016-Nov-25 23:00S 54°24' W 089°12'0 0.0 360 / 341001.6 6.9 6.8
2016-Nov-25 22:00S 54°24' W 089°12'0 0.0 360 / 331002.6 7.2 6.8
2016-Nov-25 21:00S 54°24' W 089°12'3 3.5 360 / 321003.1 7.2 6.8
2016-Nov-25 20:00S 54°24' W 089°18'0 0.0 360 / 311003.6 7.2 6.8
2016-Nov-25 19:00S 54°24' W 089°18'0 0.0 360 / 291005.0 7.2 6.8
2016-Nov-25 18:00S 54°24' W 089°18'0 0.0 360 / 261005.6 6.8 6.8
2016-Nov-25 17:00S 54°24' W 089°18'3 3.5 360 / 251006.3 6.9 6.8
2016-Nov-25 16:00S 54°24' W 089°12'0 0.0 350 / 231006.9 6.9 6.8
2016-Nov-25 15:00S 54°24' W 089°12'0 0.0 350 / 221007.7 6.8 6.8
2016-Nov-25 14:00S 54°24' W 089°12'0 0.0 350 / 221008.2 6.5 6.8
2016-Nov-25 13:00S 54°24' W 089°12'0 0.0 340 / 201008.6 6.3 6.8
2016-Nov-25 12:00S 54°24' W 089°12'0 0.0 330 / 191009.1 6.2 6.8
2016-Nov-25 11:00S 54°24' W 089°12'0 0.0 320 / 191009.6 5.8 6.7
2016-Nov-25 10:00S 54°24' W 089°12'0 0.0 330 / 191010.0 6.2 6.7
2016-Nov-25 09:00S 54°24' W 089°12'6 6.0 330 / 201010.0 6.2 6.7
2016-Nov-25 08:00S 54°30' W 089°12'3 3.5 320 / 211010.1 5.9 6.7
2016-Nov-25 07:00S 54°30' W 089°18'0 0.0 320 / 201010.6 6.2 6.7
2016-Nov-25 06:00S 54°30' W 089°18'0 0.0 320 / 171011.5 6.2 6.7
2016-Nov-25 05:00S 54°30' W 089°18'0 0.0 320 / 171012.3 6.2 6.7
2016-Nov-25 04:00S 54°30' W 089°18'6 6.0 310 / 171012.7 6.3 6.7
2016-Nov-25 03:00S 54°24' W 089°18'0 0.0 310 / 161012.8 6.3 6.8
2016-Nov-25 02:00S 54°24' W 089°18'0 0.0 300 / 121012.9 5.9 6.8
2016-Nov-25 01:00S 54°24' W 089°18'6 6.0 280 / 151013.0 6.0 6.8
2016-Nov-25 00:00S 54°18' W 089°18'4 3.5 290 / 151013.0 6.2 6.8
2016-Nov-24 23:00S 54°18' W 089°12'0 0.0 290 / 161013.0 6.3 6.8
2016-Nov-24 22:00S 54°18' W 089°12'0 0.0 280 / 171012.9 6.4 6.8
2016-Nov-24 21:00S 54°18' W 089°12'0 0.0 270 / 171012.7 6.4 6.7
2016-Nov-24 20:00S 54°18' W 089°12'4 3.5 280 / 171012.6 6.1 6.7
2016-Nov-24 19:00S 54°18' W 089°06'0 0.0 280 / 161012.2 5.6 6.7
2016-Nov-24 18:00S 54°18' W 089°06'0 0.0 270 / 151012.1 5.9 6.7
2016-Nov-24 17:00S 54°18' W 089°06'0 0.0 260 / 171011.5 5.8 6.7
2016-Nov-24 16:00S 54°18' W 089°06'0 0.0 270 / 171010.5 5.7 6.7
2016-Nov-24 15:00S 54°18' W 089°06'4 3.5 260 / 141010.5 5.3 6.6
2016-Nov-24 14:00S 54°18' W 089°00'1110.5 250 / 171009.9 5.8 6.6
2016-Nov-24 13:00S 54°18' W 088°42'1110.5 240 / 191009.0 5.1 6.5
2016-Nov-24 12:00S 54°18' W 088°24'7 7.0 250 / 191008.5 5.3 6.5
2016-Nov-24 11:00S 54°18' W 088°12'1110.5 250 / 191008.2 5.1 6.5
2016-Nov-24 10:00S 54°18' W 087°54'1110.5 260 / 181007.5 5.5 6.4
2016-Nov-24 09:00S 54°18' W 087°36'7 7.0 250 / 171006.4 4.8 6.4
2016-Nov-24 08:00S 54°18' W 087°24'1110.5 240 / 181005.4 5.1 6.4
2016-Nov-24 07:00S 54°18' W 087°06'1110.5 230 / 181004.6 5.4 6.4
2016-Nov-24 06:00S 54°18' W 086°48'7 7.0 230 / 161004.0 5.5 6.4
2016-Nov-24 05:00S 54°18' W 086°36'1110.5 220 / 161003.4 5.2 6.4
2016-Nov-24 04:00S 54°18' W 086°18'1212.1 210 / 181002.2 5.4 6.4
2016-Nov-24 03:00S 54°12' W 086°00'7 7.0 210 / 191001.1 5.6 6.4
2016-Nov-24 02:00S 54°12' W 085°48'1110.5 200 / 20999.5 5.8 6.4
2016-Nov-24 01:00S 54°12' W 085°30'1110.5 200 / 20998.0 5.9 6.4
2016-Nov-24 00:00S 54°12' W 085°12'1110.5 200 / 16996.9 5.7 6.5
2016-Nov-23 23:00S 54°12' W 084°54'7 7.0 190 / 18995.7 5.3 6.5
2016-Nov-23 22:00S 54°12' W 084°42'1110.5 190 / 20994.4 5.2 6.5
2016-Nov-23 21:00S 54°12' W 084°24'1110.5 190 / 18993.3 5.6 6.3
2016-Nov-23 20:00S 54°12' W 084°06'7 7.0 270 / 14992.9 6.4 6.3
2016-Nov-23 19:00S 54°12' W 083°54'   300 / 17992.6 6.5 6.4
Track history (hours):
 
Tides and Currents Weather Stations Pressure Air Temp Water Temp Dewpoint Dewpoint Depression Visibility Wind Speed Wind Dir Waves Ship Positions

Oceanographic research ship Nathaniel B. Palmer (USA)

Contact: Ethan Norris, ethan.norris.contractor@usap.gov

Detailed information on ship capabilities available from University of Delaware's Ocean Information Center and ARCUS's ALIAS (Arctic Logistics Information and Support) project.

Owner: OFFSHORE SERVICE VESSELS, GALLIANO, LA. More information available from US FCC via Universal Licensing System and Coast Guard Vessel Documentation Center.

Last reported at 2016-Dec-03 19:00 UTC. Time now 2016-Dec-03 19:41 UTC.
Position S 54°00' W 088°54'.

Type: Other ship. MMSI: 366610000.

Wind from 280 at 18 knots

Barometer 1007.2 mb
Air temperature 6.9 ° C
Water temperature 7.1 ° C

Date/timePositionNaut miles runAvg speedWind from/ knotsBaromVisibWave heightAir tempDewpointWater temp
2016-Dec-03 19:00S 54°00' W 088°54'4 3.5 280 / 181007.2 6.9 7.1
2016-Dec-03 18:00S 54°00' W 088°48'0 0.0 270 / 191007.0 6.8 7.0
2016-Dec-03 17:00S 54°00' W 088°48'0 0.0 270 / 191006.8 6.5 7.0
2016-Dec-03 16:00S 54°00' W 088°48'4 3.5 270 / 191006.5 6.1 7.0
2016-Dec-03 15:00S 54°00' W 088°42'0 0.0 270 / 181006.1 5.8 7.0
2016-Dec-03 14:00S 54°00' W 088°42'0 0.0 260 / 201005.7 5.8 7.0
2016-Dec-03 13:00S 54°00' W 088°42'0 0.0 260 / 171005.4 5.5 7.0
2016-Dec-03 12:00S 54°00' W 088°42'0 0.0 250 / 181005.0 5.4 7.0
2016-Dec-03 11:00S 54°00' W 088°42'0 0.0 240 / 171004.6 5.5 6.9
2016-Dec-03 10:00S 54°00' W 088°42'0 0.0 230 / 191003.7 5.5 7.0
2016-Dec-03 09:00S 54°00' W 088°42'0 0.0 230 / 161003.5 5.2 7.0
2016-Dec-03 08:00S 54°00' W 088°42'4 3.5 230 / 181003.0 4.6 7.0
2016-Dec-03 07:00S 54°00' W 088°36'4 3.5 230 / 191002.5 4.8 7.0
2016-Dec-03 06:00S 54°00' W 088°42'4 3.5 220 / 161002.2 4.4 7.0
2016-Dec-03 05:00S 54°00' W 088°48'4 3.5 220 / 221001.6 5.4 7.1
2016-Dec-03 04:00S 54°00' W 088°54'0 0.0 220 / 191001.1 5.2 7.1
2016-Dec-03 03:00S 54°00' W 088°54'0 0.0 220 / 211000.1 4.9 7.1
2016-Dec-03 02:00S 54°00' W 088°54'0 0.0 240 / 22998.7 5.2 7.1
2016-Dec-03 01:00S 54°00' W 088°54'0 0.0 240 / 21998.3 5.1 7.1
2016-Dec-03 00:00S 54°00' W 088°54'0 0.0 230 / 23997.5 5.9 7.1
2016-Dec-02 23:00S 54°00' W 088°54'0 0.0 240 / 19997.0 5.7 7.2
2016-Dec-02 22:00S 54°00' W 088°54'4 3.5 230 / 20996.3 5.7 7.1
2016-Dec-02 21:00S 54°00' W 089°00'1212.2 240 / 20995.9 5.9 7.1
2016-Dec-02 20:00S 54°06' W 089°18'7 7.0 240 / 18995.4 5.7 7.0
2016-Dec-02 19:00S 54°06' W 089°30'0 0.0 230 / 21994.5 5.4 7.0
2016-Dec-02 18:00S 54°06' W 089°30'0 0.0 230 / 22993.7 5.3 7.0
2016-Dec-02 17:00S 54°06' W 089°30'0 0.0 230 / 23992.7 5.9 7.0
2016-Dec-02 16:00S 54°06' W 089°30'4 3.5 230 / 23991.8 6.0 7.0
2016-Dec-02 15:00S 54°06' W 089°36'0 0.0 230 / 22991.2 6.1 7.0
2016-Dec-02 14:00S 54°06' W 089°36'0 0.0 230 / 20990.3 6.8 7.0
2016-Dec-02 13:00S 54°06' W 089°36'0 0.0 240 / 20989.5 6.4 7.1
2016-Dec-02 12:00S 54°06' W 089°36'0 0.0 280 / 20988.9 6.7 7.1
2016-Dec-02 11:00S 54°06' W 089°36'0 0.0 300 / 19988.6 6.9 7.1
2016-Dec-02 10:00S 54°06' W 089°36'0 0.0 310 / 20988.3 7.0 7.1
2016-Dec-02 09:00S 54°06' W 089°36'6 6.0 320 / 19988.4 7.1 7.1
2016-Dec-02 08:00S 54°00' W 089°36'0 0.0 330 / 20988.8 7.0 7.0
2016-Dec-02 07:00S 54°00' W 089°36'6 6.0 330 / 19989.2 7.2 7.0
2016-Dec-02 06:00S 53°54' W 089°36'0 0.0 330 / 19989.5 7.1 7.0
2016-Dec-02 05:00S 53°54' W 089°36'0 0.0 330 / 20989.6 7.2 7.0
2016-Dec-02 04:00S 53°54' W 089°36'4 3.5 330 / 19989.6 7.3 7.0
2016-Dec-02 03:00S 53°54' W 089°30'6 6.0 320 / 21989.4 7.2 7.0
2016-Dec-02 02:00S 54°00' W 089°30'0 0.0 340 / 22989.0 7.3 7.0
2016-Dec-02 01:00S 54°00' W 089°30'7 7.0 360 / 24989.5 7.4 7.1
2016-Dec-02 00:00S 54°06' W 089°36'0 0.0 010 / 26990.1 7.2 7.2
2016-Dec-01 23:00S 54°06' W 089°36'6 6.0 010 / 26990.8 7.2 7.2
2016-Dec-01 22:00S 54°00' W 089°36'0 0.0 010 / 23992.3 7.3 7.2
2016-Dec-01 21:00S 54°00' W 089°36'0 0.0 010 / 22993.3 7.4 7.3
2016-Dec-01 20:00S 54°00' W 089°36'6 6.0 010 / 20994.1 7.2 7.3
2016-Dec-01 19:00S 54°06' W 089°36'0 0.0 360 / 19994.8 7.3 7.2
2016-Dec-01 18:00S 54°06' W 089°36'0 0.0 350 / 18995.2 7.2 7.2
2016-Dec-01 17:00S 54°06' W 089°36'4 3.5 340 / 16995.5 6.9 7.1
2016-Dec-01 16:00S 54°06' W 089°30'0 0.0 330 / 16995.5 7.1 7.1
2016-Dec-01 15:00S 54°06' W 089°30'0 0.0 310 / 15995.4 6.9 7.0
2016-Dec-01 14:00S 54°06' W 089°30'6 6.0 300 / 15995.3 7.0 7.0
2016-Dec-01 13:00S 54°12' W 089°30'4 3.5 290 / 13995.1 7.0 7.0
2016-Dec-01 12:00S 54°12' W 089°24'0 0.0 280 / 14994.6 7.0 6.9
2016-Dec-01 11:00S 54°12' W 089°24'0 0.0 270 / 15994.1 6.8 6.9
2016-Dec-01 10:00S 54°12' W 089°24'0 0.0 290 / 14993.6 6.8 7.1
2016-Dec-01 09:00S 54°12' W 089°24'0 0.0 290 / 15993.3 6.9 7.1
2016-Dec-01 08:00S 54°12' W 089°24'0 0.0 310 / 12993.2 6.6 7.1
2016-Dec-01 07:00S 54°12' W 089°24'0 0.0 320 / 11993.1 6.4 7.0
2016-Dec-01 06:00S 54°12' W 089°24'0 0.0 320 / 7993.0 6.6 7.1
2016-Dec-01 05:00S 54°12' W 089°24'0 0.0 320 / 4992.7 6.7 7.1
2016-Dec-01 04:00S 54°12' W 089°24'0 0.0 280 / 4992.4 6.8 7.1
2016-Dec-01 03:00S 54°12' W 089°24'0 0.0 230 / 4991.7 6.9 7.2
2016-Dec-01 02:00S 54°12' W 089°24'6 6.0 200 / 3991.1 7.2 7.4
2016-Dec-01 01:00S 54°18' W 089°24'4 3.5 170 / 3990.8 7.4 7.4
2016-Dec-01 00:00S 54°18' W 089°18'6 6.0 150 / 5990.5 7.4 7.4
2016-Nov-30 23:00S 54°24' W 089°18'0 0.0 140 / 5990.6 7.4 7.3
2016-Nov-30 22:00S 54°24' W 089°18'0 0.0 110 / 6990.3 7.0 7.1
2016-Nov-30 21:00S 54°24' W 089°18'0 0.0 100 / 6990.5 6.9 6.9
2016-Nov-30 20:00S 54°24' W 089°18'3 3.5 090 / 8990.9 6.9 7.0
2016-Nov-30 19:00S 54°24' W 089°12'0 0.0 090 / 7991.3 7.0 7.1
2016-Nov-30 18:00S 54°24' W 089°12'0 0.0 060 / 6992.1 6.9 6.9
2016-Nov-30 17:00S 54°24' W 089°12'0 0.0 050 / 6992.9 6.7 6.8
2016-Nov-30 16:00S 54°24' W 089°12'7 6.9 040 / 5993.5 6.6 6.8
2016-Nov-30 15:00S 54°30' W 089°06'0 0.0 020 / 5994.4 6.6 6.7
2016-Nov-30 14:00S 54°30' W 089°06'0 0.0 995.1 6.5 6.7
2016-Nov-30 13:00S 54°30' W 089°06'3 3.5 340 / 8995.8 6.5 6.7
2016-Nov-30 12:00S 54°30' W 089°00'6 6.0 320 / 9996.3 6.5 6.7
2016-Nov-30 11:00S 54°24' W 089°00'0 0.0 310 / 10996.7 6.4 6.7
2016-Nov-30 10:00S 54°24' W 089°00'0 0.0 310 / 11996.9 6.4 6.7
2016-Nov-30 09:00S 54°24' W 089°00'3 3.5 300 / 14997.1 6.5 6.7
2016-Nov-30 08:00S 54°24' W 089°06'3 3.5 300 / 17997.2 8.2 6.7
2016-Nov-30 07:00S 54°24' W 089°12'7 7.0 300 / 19997.2 9.5 6.7
2016-Nov-30 06:00S 54°24' W 089°24'7 7.0 290 / 20997.2 9.0 6.8
2016-Nov-30 05:00S 54°24' W 089°36'3 3.5 290 / 23997.1 9.0 6.8
2016-Nov-30 04:00S 54°24' W 089°42'7 7.0 290 / 23997.2 9.0 6.8
2016-Nov-30 03:00S 54°24' W 089°54'3 3.5 290 / 24996.7 8.5 6.8
2016-Nov-30 02:00S 54°24' W 090°00'3 3.5 300 / 24996.4 8.7 6.8
2016-Nov-30 01:00S 54°24' W 090°06'3 3.5 290 / 25996.2 7.5 6.8
2016-Nov-30 00:00S 54°24' W 090°12'3 3.5 300 / 27995.7 8.3 6.8
2016-Nov-29 23:00S 54°24' W 090°18'3 3.5 290 / 22995.9 7.9 6.8
2016-Nov-29 22:00S 54°24' W 090°24'7 6.9 290 / 26994.8 7.2 6.8
2016-Nov-29 21:00S 54°30' W 090°18'6 6.0 290 / 27994.2 7.0 6.8
2016-Nov-29 20:00S 54°36' W 090°18'3 3.5 290 / 28993.4 7.2 6.8
2016-Nov-29 19:00S 54°36' W 090°12'6 6.0 280 / 29992.4 7.1 6.8
2016-Nov-29 18:00S 54°42' W 090°12'3 3.5 280 / 30991.1 7.0 6.7
2016-Nov-29 17:00S 54°42' W 090°06'6 6.0 280 / 29990.1 6.9 6.7
2016-Nov-29 16:00S 54°48' W 090°06'7 6.9 290 / 33988.7 7.2 6.7
2016-Nov-29 15:00S 54°54' W 090°00'16 2.3 290 / 33987.7 7.3 6.7
2016-Nov-29 08:00S 55°06' W 089°42'3 3.4 310 / 42984.9 7.4 6.6
2016-Nov-29 07:00S 55°06' W 089°36'3 3.4 300 / 42984.8 7.4 6.6
2016-Nov-29 06:00S 55°06' W 089°30'0 0.0 300 / 46984.1 7.6 6.5
2016-Nov-29 05:00S 55°06' W 089°30'1212.5 300 / 43984.2 7.6 6.5
2016-Nov-29 04:00S 54°54' W 089°36'6 6.0 310 / 43984.1 7.6 6.7
2016-Nov-29 03:00S 54°48' W 089°36'1212.0 310 / 40984.0 7.2 6.8
2016-Nov-29 02:00S 54°36' W 089°36'0 0.0 300 / 40982.9 7.3 6.8
2016-Nov-29 01:00S 54°36' W 089°36'7 6.9 320 / 39982.1 8.3 6.8
2016-Nov-29 00:00S 54°30' W 089°30'7 6.9 350 / 37983.6 8.5 6.8
2016-Nov-28 23:00S 54°24' W 089°24'7 7.0 350 / 34986.2 8.4 6.8
2016-Nov-28 22:00S 54°24' W 089°12'0 0.0 350 / 35988.8 8.6 6.8
2016-Nov-28 21:00S 54°24' W 089°12'0 0.0 350 / 33990.8 8.2 6.8
2016-Nov-28 20:00S 54°24' W 089°12'3 3.5 360 / 28992.7 7.7 6.8
2016-Nov-28 19:00S 54°24' W 089°06'7 7.0 994.5 7.3 6.8
2016-Nov-28 18:00S 54°24' W 089°18'6 6.0 010 / 20996.6 7.1 6.8
2016-Nov-28 17:00S 54°18' W 089°18'7 6.9 360 / 18998.6 7.7 6.8
2016-Nov-28 16:00S 54°12' W 089°24'9 9.2 350 / 201000.2 8.8 6.8
2016-Nov-28 15:00S 54°06' W 089°36'0 0.0 340 / 221001.5 7.5 6.8
2016-Nov-28 14:00S 54°06' W 089°36'0 0.0 340 / 211002.1 7.2 6.8
2016-Nov-28 13:00S 54°06' W 089°36'0 0.0 340 / 201002.7 7.2 6.8
2016-Nov-28 12:00S 54°06' W 089°36'6 6.0 350 / 211003.5 7.1 6.8
2016-Nov-28 11:00S 54°00' W 089°36'1312.5 1004.6 6.9 6.8
2016-Nov-28 10:00S 53°48' W 089°30'7 7.0 350 / 191005.7 6.9 6.8
2016-Nov-28 09:00S 53°42' W 089°24'1312.5 350 / 181006.8 7.0 6.8
2016-Nov-28 08:00S 53°30' W 089°18'7 7.0 350 / 171007.6 7.0 6.8
2016-Nov-28 07:00S 53°24' W 089°12'1312.5 330 / 161008.9 7.2 6.9
2016-Nov-28 06:00S 53°12' W 089°06'1312.5 320 / 161009.7 7.3 6.9
2016-Nov-28 05:00S 53°00' W 089°00'7 7.0 320 / 171010.4 7.4 7.0
2016-Nov-28 04:00S 52°54' W 088°54'1312.5 310 / 181010.8 7.6 7.0
2016-Nov-28 03:00S 52°42' W 088°48'7 7.0 300 / 191011.1 7.7 6.9
2016-Nov-28 02:00S 52°36' W 088°42'1312.5 300 / 181011.2 7.5 7.1
2016-Nov-28 01:00S 52°24' W 088°36'7 7.0 300 / 171011.4 7.6 7.2
2016-Nov-28 00:00S 52°18' W 088°30'0 0.0 300 / 191011.6 7.7 7.3
2016-Nov-27 23:00S 52°18' W 088°30'4 3.7 300 / 211011.5 7.9 7.3
2016-Nov-27 22:00S 52°18' W 088°24'0 0.0 300 / 211011.2 7.9 7.3
2016-Nov-27 21:00S 52°18' W 088°24'0 0.0 290 / 231010.9 8.2 7.3
2016-Nov-27 20:00S 52°18' W 088°24'0 0.0 290 / 251010.0 8.1 7.3
2016-Nov-27 19:00S 52°18' W 088°24'0 0.0 290 / 251009.9 8.3 7.3
2016-Nov-27 18:00S 52°18' W 088°24'0 0.0 290 / 261009.5 8.3 7.3
2016-Nov-27 17:00S 52°18' W 088°24'4 3.7 290 / 271008.9 8.4 7.3
2016-Nov-27 16:00S 52°18' W 088°30'7 7.3 290 / 281008.5 8.4 7.3
2016-Nov-27 15:00S 52°18' W 088°42'4 3.7 290 / 271008.3 8.5 7.2
2016-Nov-27 14:00S 52°18' W 088°48'0 0.0 290 / 261007.9 8.1 7.2
2016-Nov-27 13:00S 52°18' W 088°48'0 0.0 280 / 261007.5 8.0 7.2
2016-Nov-27 12:00S 52°18' W 088°48'0 0.0 280 / 271007.0 8.0 7.2
2016-Nov-27 11:00S 52°18' W 088°48'0 0.0 280 / 281006.4 8.1 7.2
2016-Nov-27 10:00S 52°18' W 088°48'0 0.0 290 / 291005.9 8.2 7.2
2016-Nov-27 09:00S 52°18' W 088°48'0 0.0 300 / 281005.3 8.1 7.2
2016-Nov-27 08:00S 52°18' W 088°48'0 0.0 300 / 291004.9 8.1 7.2
2016-Nov-27 07:00S 52°18' W 088°48'0 0.0 300 / 281004.9 8.1 7.2
2016-Nov-27 06:00S 52°18' W 088°48'7 7.0 310 / 281003.9 7.9 7.1
2016-Nov-27 05:00S 52°24' W 088°54'1212.0 310 / 291003.4 7.9 7.1
2016-Nov-27 04:00S 52°36' W 088°54'6 6.0 310 / 271003.3 7.8 7.0
2016-Nov-27 03:00S 52°42' W 088°54'6 6.0 310 / 281002.6 7.8 6.9
2016-Nov-27 02:00S 52°48' W 088°54'1312.5 300 / 261002.3 7.8 6.9
2016-Nov-27 01:00S 53°00' W 089°00'6 6.0 300 / 271001.7 7.8 7.0
2016-Nov-27 00:00S 53°06' W 089°00'6 6.0 300 / 281001.1 7.8 6.9
2016-Nov-26 23:00S 53°12' W 089°00'1212.0 300 / 301000.2 7.9 6.8
2016-Nov-26 22:00S 53°24' W 089°00'7 7.0 300 / 30999.3 7.8 6.8
2016-Nov-26 21:00S 53°30' W 089°06'6 6.0 300 / 30998.4 7.7 6.8
2016-Nov-26 20:00S 53°36' W 089°06'6 6.0 300 / 30997.6 7.7 6.8
2016-Nov-26 19:00S 53°42' W 089°06'6 6.0 300 / 29997.0 7.7 6.8
2016-Nov-26 18:00S 53°48' W 089°06'6 6.0 300 / 29996.4 7.6 6.8
2016-Nov-26 17:00S 53°54' W 089°06'1212.0 300 / 30995.9 7.6 6.7
2016-Nov-26 16:00S 54°06' W 089°06'6 6.0 300 / 31995.1 7.5 6.7
2016-Nov-26 15:00S 54°12' W 089°06'6 6.0 310 / 32994.4 7.6 6.7
2016-Nov-26 14:00S 54°18' W 089°06'6 6.0 310 / 33993.8 7.6 6.7
2016-Nov-26 13:00S 54°24' W 089°06'0 0.0 320 / 34994.2 7.6 6.8
2016-Nov-26 12:00S 54°24' W 089°06'0 0.0 330 / 34995.4 7.7 6.8
2016-Nov-26 11:00S 54°24' W 089°06'0 0.0 340 / 32996.1 7.4 6.8
2016-Nov-26 10:00S 54°24' W 089°06'0 0.0 340 / 29997.1 7.3 6.8
2016-Nov-26 09:00S 54°24' W 089°06'0 0.0 330 / 26998.2 7.5 6.8
2016-Nov-26 08:00S 54°24' W 089°06'0 0.0 330 / 29998.6 7.4 6.8
2016-Nov-26 07:00S 54°24' W 089°06'0 0.0 340 / 29999.0 7.3 6.8
2016-Nov-26 06:00S 54°24' W 089°06'0 0.0 330 / 27999.7 7.5 6.8
2016-Nov-26 05:00S 54°24' W 089°06'0 0.0 320 / 281000.0 7.5 6.8
2016-Nov-26 04:00S 54°24' W 089°06'0 0.0 320 / 291000.0 7.6 6.8
2016-Nov-26 03:00S 54°24' W 089°06'0 0.0 320 / 31999.7 7.6 6.8
2016-Nov-26 02:00S 54°24' W 089°06'0 0.0 340 / 32999.4 7.3 6.8
2016-Nov-26 01:00S 54°24' W 089°06'3 3.5 350 / 34999.2 7.6 6.8
2016-Nov-26 00:00S 54°24' W 089°12'0 0.0 360 / 341000.7 6.7 6.8
2016-Nov-25 23:00S 54°24' W 089°12'0 0.0 360 / 341001.6 6.9 6.8
2016-Nov-25 22:00S 54°24' W 089°12'0 0.0 360 / 331002.6 7.2 6.8
2016-Nov-25 21:00S 54°24' W 089°12'3 3.5 360 / 321003.1 7.2 6.8
2016-Nov-25 20:00S 54°24' W 089°18'0 0.0 360 / 311003.6 7.2 6.8
2016-Nov-25 19:00S 54°24' W 089°18'0 0.0 360 / 291005.0 7.2 6.8
2016-Nov-25 18:00S 54°24' W 089°18'0 0.0 360 / 261005.6 6.8 6.8
2016-Nov-25 17:00S 54°24' W 089°18'3 3.5 360 / 251006.3 6.9 6.8
2016-Nov-25 16:00S 54°24' W 089°12'0 0.0 350 / 231006.9 6.9 6.8
2016-Nov-25 15:00S 54°24' W 089°12'0 0.0 350 / 221007.7 6.8 6.8
2016-Nov-25 14:00S 54°24' W 089°12'0 0.0 350 / 221008.2 6.5 6.8
2016-Nov-25 13:00S 54°24' W 089°12'0 0.0 340 / 201008.6 6.3 6.8
2016-Nov-25 12:00S 54°24' W 089°12'0 0.0 330 / 191009.1 6.2 6.8
2016-Nov-25 11:00S 54°24' W 089°12'0 0.0 320 / 191009.6 5.8 6.7
2016-Nov-25 10:00S 54°24' W 089°12'0 0.0 330 / 191010.0 6.2 6.7
2016-Nov-25 09:00S 54°24' W 089°12'6 6.0 330 / 201010.0 6.2 6.7
2016-Nov-25 08:00S 54°30' W 089°12'3 3.5 320 / 211010.1 5.9 6.7
2016-Nov-25 07:00S 54°30' W 089°18'0 0.0 320 / 201010.6 6.2 6.7
2016-Nov-25 06:00S 54°30' W 089°18'0 0.0 320 / 171011.5 6.2 6.7
2016-Nov-25 05:00S 54°30' W 089°18'0 0.0 320 / 171012.3 6.2 6.7
2016-Nov-25 04:00S 54°30' W 089°18'6 6.0 310 / 171012.7 6.3 6.7
2016-Nov-25 03:00S 54°24' W 089°18'0 0.0 310 / 161012.8 6.3 6.8
2016-Nov-25 02:00S 54°24' W 089°18'0 0.0 300 / 121012.9 5.9 6.8
2016-Nov-25 01:00S 54°24' W 089°18'6 6.0 280 / 151013.0 6.0 6.8
2016-Nov-25 00:00S 54°18' W 089°18'4 3.5 290 / 151013.0 6.2 6.8
2016-Nov-24 23:00S 54°18' W 089°12'0 0.0 290 / 161013.0 6.3 6.8
2016-Nov-24 22:00S 54°18' W 089°12'0 0.0 280 / 171012.9 6.4 6.8
2016-Nov-24 21:00S 54°18' W 089°12'0 0.0 270 / 171012.7 6.4 6.7
2016-Nov-24 20:00S 54°18' W 089°12'4 3.5 280 / 171012.6 6.1 6.7
2016-Nov-24 19:00S 54°18' W 089°06'0 0.0 280 / 161012.2 5.6 6.7
2016-Nov-24 18:00S 54°18' W 089°06'0 0.0 270 / 151012.1 5.9 6.7
2016-Nov-24 17:00S 54°18' W 089°06'0 0.0 260 / 171011.5 5.8 6.7
2016-Nov-24 16:00S 54°18' W 089°06'0 0.0 270 / 171010.5 5.7 6.7
2016-Nov-24 15:00S 54°18' W 089°06'4 3.5 260 / 141010.5 5.3 6.6
2016-Nov-24 14:00S 54°18' W 089°00'1110.5 250 / 171009.9 5.8 6.6
2016-Nov-24 13:00S 54°18' W 088°42'1110.5 240 / 191009.0 5.1 6.5
2016-Nov-24 12:00S 54°18' W 088°24'7 7.0 250 / 191008.5 5.3 6.5
2016-Nov-24 11:00S 54°18' W 088°12'1110.5 250 / 191008.2 5.1 6.5
2016-Nov-24 10:00S 54°18' W 087°54'1110.5 260 / 181007.5 5.5 6.4
2016-Nov-24 09:00S 54°18' W 087°36'7 7.0 250 / 171006.4 4.8 6.4
2016-Nov-24 08:00S 54°18' W 087°24'1110.5 240 / 181005.4 5.1 6.4
2016-Nov-24 07:00S 54°18' W 087°06'1110.5 230 / 181004.6 5.4 6.4
2016-Nov-24 06:00S 54°18' W 086°48'7 7.0 230 / 161004.0 5.5 6.4
2016-Nov-24 05:00S 54°18' W 086°36'1110.5 220 / 161003.4 5.2 6.4
2016-Nov-24 04:00S 54°18' W 086°18'1212.1 210 / 181002.2 5.4 6.4
2016-Nov-24 03:00S 54°12' W 086°00'7 7.0 210 / 191001.1 5.6 6.4
2016-Nov-24 02:00S 54°12' W 085°48'1110.5 200 / 20999.5 5.8 6.4
2016-Nov-24 01:00S 54°12' W 085°30'1110.5 200 / 20998.0 5.9 6.4
2016-Nov-24 00:00S 54°12' W 085°12'1110.5 200 / 16996.9 5.7 6.5
2016-Nov-23 23:00S 54°12' W 084°54'7 7.0 190 / 18995.7 5.3 6.5
2016-Nov-23 22:00S 54°12' W 084°42'1110.5 190 / 20994.4 5.2 6.5
2016-Nov-23 21:00S 54°12' W 084°24'1110.5 190 / 18993.3 5.6 6.3
2016-Nov-23 20:00S 54°12' W 084°06'7 7.0 270 / 14992.9 6.4 6.3
2016-Nov-23 19:00S 54°12' W 083°54'   300 / 17992.6 6.5 6.4

Dump ship's entire track history